sensor_id;sensor_type;location;lat;lon;timestamp;pressure;altitude;pressure_sealevel;temperature;humidity
77517;BME280;68414;53.946;27.634;2023-08-06T00:00:13;98580.796875;;;24.730000;66.750977
77517;BME280;68414;53.946;27.634;2023-08-06T00:01:12;98580.796875;;;24.730000;66.683594
77517;BME280;68414;53.946;27.634;2023-08-06T00:02:12;98572.343750;;;24.730000;66.750977
77517;BME280;68414;53.946;27.634;2023-08-06T00:03:12;98573.562500;;;24.719999;66.715820
77517;BME280;68414;53.946;27.634;2023-08-06T00:04:12;98572.578125;;;24.660000;66.863281
77517;BME280;68414;53.946;27.634;2023-08-06T00:05:12;98566.484375;;;24.670000;66.821289
77517;BME280;68414;53.946;27.634;2023-08-06T00:06:12;98568.398438;;;24.700001;66.747070
77517;BME280;68414;53.946;27.634;2023-08-06T00:07:14;98570.093750;;;24.680000;66.809570
77517;BME280;68414;53.946;27.634;2023-08-06T00:08:12;98570.554688;;;24.660000;66.763672
77517;BME280;68414;53.946;27.634;2023-08-06T00:09:12;98563.796875;;;24.639999;66.848633
77517;BME280;68414;53.946;27.634;2023-08-06T00:10:13;98567.406250;;;24.639999;66.996094
77517;BME280;68414;53.946;27.634;2023-08-06T00:11:12;98564.453125;;;24.680000;66.854492
77517;BME280;68414;53.946;27.634;2023-08-06T00:12:12;98568.062500;;;24.680000;66.833008
77517;BME280;68414;53.946;27.634;2023-08-06T00:13:12;98566.937500;;;24.660000;66.896484
77517;BME280;68414;53.946;27.634;2023-08-06T00:14:13;98568.640625;;;24.629999;66.994141
77517;BME280;68414;53.946;27.634;2023-08-06T00:15:12;98554.546875;;;24.629999;66.882812
77517;BME280;68414;53.946;27.634;2023-08-06T00:16:13;98560.648438;;;24.620001;66.947266
77517;BME280;68414;53.946;27.634;2023-08-06T00:17:12;98562.203125;;;24.629999;66.903320
77517;BME280;68414;53.946;27.634;2023-08-06T00:18:12;98559.390625;;;24.629999;67.003906
77517;BME280;68414;53.946;27.634;2023-08-06T00:19:12;98560.187500;;;24.629999;66.927734
77517;BME280;68414;53.946;27.634;2023-08-06T00:20:12;98559.718750;;;24.650000;66.895508
77517;BME280;68414;53.946;27.634;2023-08-06T00:21:12;98564.593750;;;24.639999;66.996094
77517;BME280;68414;53.946;27.634;2023-08-06T00:22:12;98563.906250;;;24.600000;67.078125
77517;BME280;68414;53.946;27.634;2023-08-06T00:23:12;98565.156250;;;24.590000;67.099609
77517;BME280;68414;53.946;27.634;2023-08-06T00:24:12;98556.375000;;;24.570000;67.164062
77517;BME280;68414;53.946;27.634;2023-08-06T00:25:12;98563.703125;;;24.549999;67.216797
77517;BME280;68414;53.946;27.634;2023-08-06T00:26:12;98558.531250;;;24.530001;67.258789
77517;BME280;68414;53.946;27.634;2023-08-06T00:27:14;98564.937500;;;24.540001;67.169922
77517;BME280;68414;53.946;27.634;2023-08-06T00:28:12;98556.945312;;;24.520000;67.391602
77517;BME280;68414;53.946;27.634;2023-08-06T00:29:12;98558.968750;;;24.520000;67.423828
77517;BME280;68414;53.946;27.634;2023-08-06T00:30:12;98559.562500;;;24.469999;67.506836
77517;BME280;68414;53.946;27.634;2023-08-06T00:31:12;98557.515625;;;24.469999;67.607422
77517;BME280;68414;53.946;27.634;2023-08-06T00:32:12;98559.890625;;;24.490000;67.610352
77517;BME280;68414;53.946;27.634;2023-08-06T00:33:12;98557.078125;;;24.490000;67.509766
77517;BME280;68414;53.946;27.634;2023-08-06T00:34:12;98558.312500;;;24.480000;67.541992
77517;BME280;68414;53.946;27.634;2023-08-06T00:35:14;98555.296875;;;24.420000;67.633789
77517;BME280;68414;53.946;27.634;2023-08-06T00:36:12;98555.156250;;;24.459999;67.617188
77517;BME280;68414;53.946;27.634;2023-08-06T00:37:12;98546.703125;;;24.459999;67.539062
77517;BME280;68414;53.946;27.634;2023-08-06T00:38:12;98553.601562;;;24.450001;67.750000
77517;BME280;68414;53.946;27.634;2023-08-06T00:39:12;98548.867188;;;24.420000;67.878906
77517;BME280;68414;53.946;27.634;2023-08-06T00:40:12;98552.578125;;;24.389999;67.954102
77517;BME280;68414;53.946;27.634;2023-08-06T00:41:12;98552.906250;;;24.410000;67.822266
77517;BME280;68414;53.946;27.634;2023-08-06T00:42:12;98556.656250;;;24.379999;67.917969
77517;BME280;68414;53.946;27.634;2023-08-06T00:43:12;98559.468750;;;24.379999;67.917969
77517;BME280;68414;53.946;27.634;2023-08-06T00:44:12;98550.789062;;;24.320000;68.054688
77517;BME280;68414;53.946;27.634;2023-08-06T00:45:14;98554.296875;;;24.360001;67.938477
77517;BME280;68414;53.946;27.634;2023-08-06T00:46:12;98550.218750;;;24.370001;68.073242
77517;BME280;68414;53.946;27.634;2023-08-06T00:47:12;98540.218750;;;24.360001;68.028320
77517;BME280;68414;53.946;27.634;2023-08-06T00:48:12;98546.750000;;;24.330000;67.989258
77517;BME280;68414;53.946;27.634;2023-08-06T00:49:12;98536.273438;;;24.340000;68.291992
77517;BME280;68414;53.946;27.634;2023-08-06T00:50:12;98542.703125;;;24.340000;68.135742
77517;BME280;68414;53.946;27.634;2023-08-06T00:51:12;98543.929688;;;24.330000;68.100586
77517;BME280;68414;53.946;27.634;2023-08-06T00:52:12;98535.609375;;;24.299999;68.218750
77517;BME280;68414;53.946;27.634;2023-08-06T00:53:12;98539.195312;;;24.299999;68.230469
77517;BME280;68414;53.946;27.634;2023-08-06T00:54:12;98536.375000;;;24.299999;68.275391
77517;BME280;68414;53.946;27.634;2023-08-06T00:55:12;98538.093750;;;24.280001;68.259766
77517;BME280;68414;53.946;27.634;2023-08-06T00:56:12;98544.062500;;;24.299999;68.274414
77517;BME280;68414;53.946;27.634;2023-08-06T00:57:12;98541.671875;;;24.280001;68.206055
77517;BME280;68414;53.946;27.634;2023-08-06T00:58:12;98538.093750;;;24.280001;68.304688
77517;BME280;68414;53.946;27.634;2023-08-06T00:59:12;98541.476562;;;24.230000;68.287109
77517;BME280;68414;53.946;27.634;2023-08-06T01:00:12;98534.250000;;;24.219999;68.475586
77517;BME280;68414;53.946;27.634;2023-08-06T01:01:12;98541.476562;;;24.230000;68.443359
77517;BME280;68414;53.946;27.634;2023-08-06T01:02:12;98536.640625;;;24.230000;68.398438
77517;BME280;68414;53.946;27.634;2023-08-06T01:03:12;98531.437500;;;24.219999;68.441406
77517;BME280;68414;53.946;27.634;2023-08-06T01:04:12;98537.867188;;;24.219999;68.398438
77517;BME280;68414;53.946;27.634;2023-08-06T01:05:12;98531.906250;;;24.200001;68.595703
77517;BME280;68414;53.946;27.634;2023-08-06T01:06:12;98532.703125;;;24.209999;68.517578
77517;BME280;68414;53.946;27.634;2023-08-06T01:12:18;98533.593750;;;24.180000;68.738281
77517;BME280;68414;53.946;27.634;2023-08-06T01:14:15;98540.484375;;;24.170000;68.667969
77517;BME280;68414;53.946;27.634;2023-08-06T01:17:12;98536.078125;;;24.160000;68.610352
77517;BME280;68414;53.946;27.634;2023-08-06T01:18:12;98531.000000;;;24.100000;68.916016
77517;BME280;68414;53.946;27.634;2023-08-06T01:20:12;98535.406250;;;24.120001;68.962891
77517;BME280;68414;53.946;27.634;2023-08-06T01:21:13;98530.242188;;;24.100000;68.950195
77517;BME280;68414;53.946;27.634;2023-08-06T01:22:12;98531.593750;;;24.049999;69.077148
77517;BME280;68414;53.946;27.634;2023-08-06T01:23:12;98534.414062;;;24.049999;69.021484
77517;BME280;68414;53.946;27.634;2023-08-06T01:24:12;98525.500000;;;24.070000;68.955078
77517;BME280;68414;53.946;27.634;2023-08-06T01:25:13;98533.484375;;;24.080000;68.846680
77517;BME280;68414;53.946;27.634;2023-08-06T01:30:13;98525.375000;;;24.100000;68.759766
77517;BME280;68414;53.946;27.634;2023-08-06T01:31:15;98519.750000;;;24.100000;68.792969
77517;BME280;68414;53.946;27.634;2023-08-06T01:32:12;98522.234375;;;24.080000;68.935547
77517;BME280;68414;53.946;27.634;2023-08-06T01:33:15;98523.945312;;;24.059999;68.909180
77517;BME280;68414;53.946;27.634;2023-08-06T01:34:17;98517.859375;;;24.070000;68.823242
77517;BME280;68414;53.946;27.634;2023-08-06T01:35:14;98518.648438;;;24.080000;68.789062
77517;BME280;68414;53.946;27.634;2023-08-06T01:36:13;98525.046875;;;24.080000;68.623047
77517;BME280;68414;53.946;27.634;2023-08-06T01:37:12;98524.281250;;;24.080000;68.778320
77517;BME280;68414;53.946;27.634;2023-08-06T01:38:12;98519.875000;;;24.070000;68.810547
77517;BME280;68414;53.946;27.634;2023-08-06T01:39:12;98522.687500;;;24.070000;68.776367
77517;BME280;68414;53.946;27.634;2023-08-06T01:40:12;98522.359375;;;24.049999;68.795898
77517;BME280;68414;53.946;27.634;2023-08-06T01:41:12;98517.062500;;;24.070000;68.765625
77517;BME280;68414;53.946;27.634;2023-08-06T01:42:12;98519.078125;;;24.059999;68.820312
77517;BME280;68414;53.946;27.634;2023-08-06T01:43:12;98519.078125;;;24.059999;68.786133
77517;BME280;68414;53.946;27.634;2023-08-06T01:44:12;98520.671875;;;24.070000;68.722656
77517;BME280;68414;53.946;27.634;2023-08-06T01:45:12;98510.632812;;;24.059999;68.752930
77517;BME280;68414;53.946;27.634;2023-08-06T01:46:12;98519.968750;;;24.030001;68.838867
77517;BME280;68414;53.946;27.634;2023-08-06T01:47:12;98521.203125;;;24.020000;68.802734
77517;BME280;68414;53.946;27.634;2023-08-06T01:48:12;98519.640625;;;24.010000;68.879883
77517;BME280;68414;53.946;27.634;2023-08-06T01:49:12;98518.046875;;;24.000000;68.990234
77517;BME280;68414;53.946;27.634;2023-08-06T01:50:12;98517.046875;;;23.940001;69.182617
77517;BME280;68414;53.946;27.634;2023-08-06T01:51:12;98514.570312;;;23.959999;68.995117
77517;BME280;68414;53.946;27.634;2023-08-06T01:52:12;98518.609375;;;23.950001;69.061523
77517;BME280;68414;53.946;27.634;2023-08-06T01:53:12;98523.015625;;;23.959999;68.984375
77517;BME280;68414;53.946;27.634;2023-08-06T01:54:12;98522.890625;;;24.000000;68.977539
77517;BME280;68414;53.946;27.634;2023-08-06T01:55:12;98524.570312;;;23.969999;68.929688
77517;BME280;68414;53.946;27.634;2023-08-06T01:56:12;98515.796875;;;23.950001;69.195312
77517;BME280;68414;53.946;27.634;2023-08-06T01:57:12;98519.734375;;;23.980000;68.952148
77517;BME280;68414;53.946;27.634;2023-08-06T01:58:12;98524.703125;;;23.940001;69.248047
77517;BME280;68414;53.946;27.634;2023-08-06T01:59:12;98522.218750;;;23.959999;69.049805
77517;BME280;68414;53.946;27.634;2023-08-06T02:00:12;98529.531250;;;23.930000;69.169922
77517;BME280;68414;53.946;27.634;2023-08-06T02:01:12;98523.015625;;;23.959999;69.095703
77517;BME280;68414;53.946;27.634;2023-08-06T02:02:12;98522.781250;;;23.910000;69.166016
77517;BME280;68414;53.946;27.634;2023-08-06T02:03:12;98523.570312;;;23.910000;69.156250
77517;BME280;68414;53.946;27.634;2023-08-06T02:04:12;98522.343750;;;23.920000;69.166992
77517;BME280;68414;53.946;27.634;2023-08-06T02:05:12;98516.718750;;;23.920000;69.200195
77517;BME280;68414;53.946;27.634;2023-08-06T02:06:12;98522.906250;;;23.870001;69.382812
77517;BME280;68414;53.946;27.634;2023-08-06T02:07:12;98517.273438;;;23.870001;69.372070
77517;BME280;68414;53.946;27.634;2023-08-06T02:08:12;98509.625000;;;23.879999;69.316406
77517;BME280;68414;53.946;27.634;2023-08-06T02:09:12;98510.750000;;;23.900000;69.164062
77517;BME280;68414;53.946;27.634;2023-08-06T02:10:14;98509.171875;;;23.889999;69.186523
77517;BME280;68414;53.946;27.634;2023-08-06T02:11:12;98526.179688;;;23.860001;69.514648
77517;BME280;68414;53.946;27.634;2023-08-06T02:12:12;98515.382812;;;23.840000;69.625000
77517;BME280;68414;53.946;27.634;2023-08-06T02:13:12;98515.015625;;;23.820000;69.577148
77517;BME280;68414;53.946;27.634;2023-08-06T02:14:12;98511.773438;;;23.840000;69.489258
77517;BME280;68414;53.946;27.634;2023-08-06T02:15:12;98514.250000;;;23.820000;69.597656
77517;BME280;68414;53.946;27.634;2023-08-06T02:16:12;98523.359375;;;23.860001;69.514648
77517;BME280;68414;53.946;27.634;2023-08-06T02:17:12;98516.937500;;;23.850000;69.502930
77517;BME280;68414;53.946;27.634;2023-08-06T02:18:13;98521.656250;;;23.760000;69.701172
77517;BME280;68414;53.946;27.634;2023-08-06T02:19:12;98519.640625;;;23.760000;69.656250
77517;BME280;68414;53.946;27.634;2023-08-06T02:20:12;98522.789062;;;23.780001;69.704102
77517;BME280;68414;53.946;27.634;2023-08-06T02:21:12;98517.500000;;;23.799999;69.596680
77517;BME280;68414;53.946;27.634;2023-08-06T02:22:12;98516.734375;;;23.799999;69.684570
77517;BME280;68414;53.946;27.634;2023-08-06T02:23:12;98515.609375;;;23.770000;69.858398
77517;BME280;68414;53.946;27.634;2023-08-06T02:24:12;98516.828125;;;23.760000;69.924805
77517;BME280;68414;53.946;27.634;2023-08-06T02:25:12;98517.750000;;;23.730000;69.786133
77517;BME280;68414;53.946;27.634;2023-08-06T02:26:12;98519.640625;;;23.760000;69.834961
77517;BME280;68414;53.946;27.634;2023-08-06T02:27:12;98519.429688;;;23.709999;70.050781
77517;BME280;68414;53.946;27.634;2023-08-06T02:28:14;98521.453125;;;23.700001;69.926758
77517;BME280;68414;53.946;27.634;2023-08-06T02:29:12;98526.281250;;;23.700001;70.025391
77517;BME280;68414;53.946;27.634;2023-08-06T02:30:12;98515.031250;;;23.700001;70.037109
77517;BME280;68414;53.946;27.634;2023-08-06T02:31:12;98521.328125;;;23.610001;70.280273
77517;BME280;68414;53.946;27.634;2023-08-06T02:32:12;98514.140625;;;23.600000;70.401367
77517;BME280;68414;53.946;27.634;2023-08-06T02:33:12;98517.718750;;;23.610001;70.379883
77517;BME280;68414;53.946;27.634;2023-08-06T02:34:12;98523.804688;;;23.590000;70.467773
77517;BME280;68414;53.946;27.634;2023-08-06T02:35:12;98509.406250;;;23.570000;70.709961
77517;BME280;68414;53.946;27.634;2023-08-06T02:36:12;98515.828125;;;23.580000;70.564453
77517;BME280;68414;53.946;27.634;2023-08-06T02:37:12;98515.828125;;;23.580000;70.463867
77517;BME280;68414;53.946;27.634;2023-08-06T02:38:12;98517.843750;;;23.570000;70.531250
77517;BME280;68414;53.946;27.634;2023-08-06T02:39:14;98513.109375;;;23.540001;70.616211
77517;BME280;68414;53.946;27.634;2023-08-06T02:40:12;98520.781250;;;23.540001;70.581055
77517;BME280;68414;53.946;27.634;2023-08-06T02:41:12;98520.781250;;;23.540001;70.737305
77517;BME280;68414;53.946;27.634;2023-08-06T02:42:12;98519.296875;;;23.370001;71.144531
77517;BME280;68414;53.946;27.634;2023-08-06T02:43:12;98516.921875;;;23.350000;71.243164
77517;BME280;68414;53.946;27.634;2023-08-06T02:44:14;98520.984375;;;23.340000;71.565430
77517;BME280;68414;53.946;27.634;2023-08-06T02:45:12;98525.484375;;;23.440001;71.168945
77517;BME280;68414;53.946;27.634;2023-08-06T02:46:12;98512.218750;;;23.450001;70.990234
77517;BME280;68414;53.946;27.634;2023-08-06T02:47:12;98522.921875;;;23.500000;70.865234
77517;BME280;68414;53.946;27.634;2023-08-06T02:48:12;98518.515625;;;23.490000;70.884766
77517;BME280;68414;53.946;27.634;2023-08-06T02:49:12;98523.687500;;;23.500000;70.842773
77517;BME280;68414;53.946;27.634;2023-08-06T02:50:12;98521.546875;;;23.540001;70.838867
77517;BME280;68414;53.946;27.634;2023-08-06T02:51:12;98522.921875;;;23.620001;70.404297
77517;BME280;68414;53.946;27.634;2023-08-06T02:52:12;98518.640625;;;23.580000;70.564453
77517;BME280;68414;53.946;27.634;2023-08-06T02:53:12;98524.476562;;;23.510000;70.842773
77517;BME280;68414;53.946;27.634;2023-08-06T02:54:12;98518.054688;;;23.500000;71.054688
77517;BME280;68414;53.946;27.634;2023-08-06T02:55:12;98519.648438;;;23.510000;70.877930
77517;BME280;68414;53.946;27.634;2023-08-06T02:56:12;98521.328125;;;23.490000;70.862305
77517;BME280;68414;53.946;27.634;2023-08-06T02:57:12;98531.234375;;;23.530001;70.858398
77517;BME280;68414;53.946;27.634;2023-08-06T02:58:12;98526.953125;;;23.490000;70.962891
77517;BME280;68414;53.946;27.634;2023-08-06T02:59:12;98520.531250;;;23.480000;70.996094
77517;BME280;68414;53.946;27.634;2023-08-06T03:00:12;98530.562500;;;23.490000;70.875000
77517;BME280;68414;53.946;27.634;2023-08-06T03:01:12;98527.078125;;;23.450001;71.181641
77517;BME280;68414;53.946;27.634;2023-08-06T03:02:12;98522.546875;;;23.480000;71.007812
77517;BME280;68414;53.946;27.634;2023-08-06T03:03:12;98524.343750;;;23.420000;71.410156
77517;BME280;68414;53.946;27.634;2023-08-06T03:04:12;98524.812500;;;23.400000;71.341797
77517;BME280;68414;53.946;27.634;2023-08-06T03:05:12;98523.007812;;;23.459999;71.149414
77517;BME280;68414;53.946;27.634;2023-08-06T03:06:12;98526.281250;;;23.450001;71.191406
77517;BME280;68414;53.946;27.634;2023-08-06T03:07:12;98523.804688;;;23.469999;71.104492
77517;BME280;68414;53.946;27.634;2023-08-06T03:08:12;98523.007812;;;23.459999;71.093750
77517;BME280;68414;53.946;27.634;2023-08-06T03:09:12;98525.937500;;;23.430000;71.310547
77517;BME280;68414;53.946;27.634;2023-08-06T03:10:12;98527.406250;;;23.469999;71.061523
77517;BME280;68414;53.946;27.634;2023-08-06T03:11:12;98523.921875;;;23.430000;71.290039
77517;BME280;68414;53.946;27.634;2023-08-06T03:12:12;98520.984375;;;23.340000;71.475586
77517;BME280;68414;53.946;27.634;2023-08-06T03:13:12;98529.210938;;;23.410000;71.307617
77517;BME280;68414;53.946;27.634;2023-08-06T03:14:12;98519.859375;;;23.440001;71.202148
77517;BME280;68414;53.946;27.634;2023-08-06T03:15:12;98518.726562;;;23.420000;71.287109
77517;BME280;68414;53.946;27.634;2023-08-06T03:16:12;98519.187500;;;23.400000;71.397461
77517;BME280;68414;53.946;27.634;2023-08-06T03:17:12;98517.960938;;;23.410000;71.341797
77517;BME280;68414;53.946;27.634;2023-08-06T03:18:12;98524.593750;;;23.469999;71.139648
77517;BME280;68414;53.946;27.634;2023-08-06T03:19:12;98525.273438;;;23.510000;70.933594
77517;BME280;68414;53.946;27.634;2023-08-06T03:20:12;98522.000000;;;23.530001;70.903320
77517;BME280;68414;53.946;27.634;2023-08-06T03:21:12;98521.546875;;;23.540001;70.838867
77517;BME280;68414;53.946;27.634;2023-08-06T03:22:12;98520.320312;;;23.549999;70.873047
77517;BME280;68414;53.946;27.634;2023-08-06T03:23:12;98517.968750;;;23.540001;70.916016
77517;BME280;68414;53.946;27.634;2023-08-06T03:24:14;98520.656250;;;23.570000;70.821289
77517;BME280;68414;53.946;27.634;2023-08-06T03:25:12;98517.843750;;;23.570000;70.843750
77517;BME280;68414;53.946;27.634;2023-08-06T03:26:12;98517.507812;;;23.549999;70.861328
77517;BME280;68414;53.946;27.634;2023-08-06T03:27:12;98529.093750;;;23.570000;70.810547
77517;BME280;68414;53.946;27.634;2023-08-06T03:28:12;98518.515625;;;23.610001;70.582031
77517;BME280;68414;53.946;27.634;2023-08-06T03:29:12;98517.718750;;;23.610001;70.591797
77517;BME280;68414;53.946;27.634;2023-08-06T03:30:12;98516.500000;;;23.620001;70.426758
77517;BME280;68414;53.946;27.634;2023-08-06T03:31:14;98517.625000;;;23.639999;70.474609
77517;BME280;68414;53.946;27.634;2023-08-06T03:32:12;98517.625000;;;23.639999;70.418945
77517;BME280;68414;53.946;27.634;2023-08-06T03:33:12;98511.546875;;;23.660000;70.444336
77517;BME280;68414;53.946;27.634;2023-08-06T03:34:12;98509.734375;;;23.719999;70.151367
77517;BME280;68414;53.946;27.634;2023-08-06T03:35:12;98516.617188;;;23.709999;70.196289
77517;BME280;68414;53.946;27.634;2023-08-06T03:36:12;98511.328125;;;23.730000;70.165039
77517;BME280;68414;53.946;27.634;2023-08-06T03:37:12;98516.617188;;;23.709999;70.173828
77517;BME280;68414;53.946;27.634;2023-08-06T03:38:12;98505.234375;;;23.740000;70.021484
77517;BME280;68414;53.946;27.634;2023-08-06T03:39:12;98513.679688;;;23.740000;69.977539
77517;BME280;68414;53.946;27.634;2023-08-06T03:40:12;98519.429688;;;23.709999;70.430664
77517;BME280;68414;53.946;27.634;2023-08-06T03:41:12;98514.812500;;;23.639999;70.452148
77517;BME280;68414;53.946;27.634;2023-08-06T03:42:12;98506.710938;;;23.660000;70.333984
77517;BME280;68414;53.946;27.634;2023-08-06T03:43:12;98507.171875;;;23.650000;70.331055
77517;BME280;68414;53.946;27.634;2023-08-06T03:44:12;98514.593750;;;23.709999;70.073242
77517;BME280;68414;53.946;27.634;2023-08-06T03:45:12;98511.421875;;;23.690001;70.046875
77517;BME280;68414;53.946;27.634;2023-08-06T03:46:12;98506.250000;;;23.680000;70.212891
77517;BME280;68414;53.946;27.634;2023-08-06T03:47:12;98502.421875;;;23.740000;70.356445
77517;BME280;68414;53.946;27.634;2023-08-06T03:48:12;98511.109375;;;23.799999;70.175781
77517;BME280;68414;53.946;27.634;2023-08-06T03:49:12;98513.218750;;;23.760000;70.449219
77517;BME280;68414;53.946;27.634;2023-08-06T03:50:12;98515.828125;;;23.700001;70.183594
77517;BME280;68414;53.946;27.634;2023-08-06T03:51:12;98501.531250;;;23.770000;70.071289
77517;BME280;68414;53.946;27.634;2023-08-06T03:52:12;98506.578125;;;23.820000;69.979492
77517;BME280;68414;53.946;27.634;2023-08-06T03:53:12;98510.765625;;;23.780001;69.827148
77517;BME280;68414;53.946;27.634;2023-08-06T03:54:12;98505.351562;;;23.830000;69.800781
77517;BME280;68414;53.946;27.634;2023-08-06T03:55:12;98509.171875;;;23.889999;69.476562
77517;BME280;68414;53.946;27.634;2023-08-06T03:56:12;98508.273438;;;23.920000;69.423828
77517;BME280;68414;53.946;27.634;2023-08-06T03:57:12;98511.421875;;;23.940001;69.461914
77517;BME280;68414;53.946;27.634;2023-08-06T03:58:12;98508.484375;;;23.980000;69.332031
77517;BME280;68414;53.946;27.634;2023-08-06T03:59:12;98504.664062;;;23.920000;69.345703
77517;BME280;68414;53.946;27.634;2023-08-06T04:00:12;98496.781250;;;23.870001;69.517578
77517;BME280;68414;53.946;27.634;2023-08-06T04:01:12;98496.218750;;;23.920000;69.234375
77517;BME280;68414;53.946;27.634;2023-08-06T04:02:12;98493.875000;;;23.900000;69.410156
77517;BME280;68414;53.946;27.634;2023-08-06T04:03:12;98490.265625;;;23.900000;69.287109
77517;BME280;68414;53.946;27.634;2023-08-06T04:04:12;98488.109375;;;23.940001;69.114258
77517;BME280;68414;53.946;27.634;2023-08-06T04:05:12;98495.531250;;;24.000000;69.124023
77517;BME280;68414;53.946;27.634;2023-08-06T04:06:12;98484.140625;;;24.040001;68.828125
77517;BME280;68414;53.946;27.634;2023-08-06T04:07:12;98483.812500;;;24.020000;69.304688
77517;BME280;68414;53.946;27.634;2023-08-06T04:08:12;98491.593750;;;24.100000;68.536133
77517;BME280;68414;53.946;27.634;2023-08-06T04:09:12;98485.625000;;;24.209999;68.339844
77517;BME280;68414;53.946;27.634;2023-08-06T04:10:12;98494.734375;;;24.250000;68.479492
77517;BME280;68414;53.946;27.634;2023-08-06T04:11:12;98486.281250;;;24.250000;68.155273
77517;BME280;68414;53.946;27.634;2023-08-06T04:12:12;98483.335938;;;24.290001;68.093750
77517;BME280;68414;53.946;27.634;2023-08-06T04:13:12;98486.375000;;;24.340000;67.799805
77517;BME280;68414;53.946;27.634;2023-08-06T04:14:12;98484.328125;;;24.350000;67.409180
77517;BME280;68414;53.946;27.634;2023-08-06T04:15:12;98480.468750;;;24.410000;67.811523
77517;BME280;68414;53.946;27.634;2023-08-06T04:16:12;98480.039062;;;24.430000;67.500977
77517;BME280;68414;53.946;27.634;2023-08-06T04:17:12;98477.875000;;;24.469999;67.238281
77517;BME280;68414;53.946;27.634;2023-08-06T04:18:12;98484.828125;;;24.549999;66.858398
77517;BME280;68414;53.946;27.634;2023-08-06T04:19:12;98483.125000;;;24.570000;66.705078
77517;BME280;68414;53.946;27.634;2023-08-06T04:20:12;98476.703125;;;24.570000;66.750000
77517;BME280;68414;53.946;27.634;2023-08-06T04:21:12;98474.203125;;;24.590000;66.460938
77517;BME280;68414;53.946;27.634;2023-08-06T04:22:14;98475.000000;;;24.590000;66.595703
77517;BME280;68414;53.946;27.634;2023-08-06T04:23:12;98480.640625;;;24.590000;66.763672
77517;BME280;68414;53.946;27.634;2023-08-06T04:24:12;98476.234375;;;24.580000;66.695312
77517;BME280;68414;53.946;27.634;2023-08-06T04:25:12;98482.000000;;;24.549999;66.769531
77517;BME280;68414;53.946;27.634;2023-08-06T04:26:12;98484.687500;;;24.580000;66.605469
77517;BME280;68414;53.946;27.634;2023-08-06T04:27:13;98484.906250;;;24.639999;66.614258
77517;BME280;68414;53.946;27.634;2023-08-06T04:28:12;98477.101562;;;24.680000;66.518555
77517;BME280;68414;53.946;27.634;2023-08-06T04:29:12;98478.796875;;;24.650000;66.616211
77517;BME280;68414;53.946;27.634;2023-08-06T04:30:12;98480.062500;;;24.639999;66.637695
77517;BME280;68414;53.946;27.634;2023-08-06T04:31:12;98477.679688;;;24.629999;66.690430
77517;BME280;68414;53.946;27.634;2023-08-06T04:32:12;98478.656250;;;24.690001;66.543945
77517;BME280;68414;53.946;27.634;2023-08-06T04:33:12;98479.453125;;;24.690001;66.845703
77517;BME280;68414;53.946;27.634;2023-08-06T04:34:14;98474.718750;;;24.790001;66.266602
77517;BME280;68414;53.946;27.634;2023-08-06T04:35:12;98479.742188;;;24.840000;65.948242
77517;BME280;68414;53.946;27.634;2023-08-06T04:36:12;98479.742188;;;24.840000;65.690430
77517;BME280;68414;53.946;27.634;2023-08-06T04:37:12;98475.046875;;;24.809999;66.001953
77517;BME280;68414;53.946;27.634;2023-08-06T04:38:12;98476.414062;;;24.760000;66.028320
77517;BME280;68414;53.946;27.634;2023-08-06T04:39:12;98474.468750;;;24.730000;66.091797
77517;BME280;68414;53.946;27.634;2023-08-06T04:40:12;98474.109375;;;24.840000;66.093750
77517;BME280;68414;53.946;27.634;2023-08-06T04:41:14;98481.078125;;;24.920000;65.939453
77517;BME280;68414;53.946;27.634;2023-08-06T04:42:12;98475.109375;;;24.900000;65.667969
77517;BME280;68414;53.946;27.634;2023-08-06T04:43:12;98475.875000;;;24.910000;65.510742